Terminal Aerodrome Forecast
Issued by NWS Rapid City, SD

Home | Current Version | Previous Version | Graphics & Text | Print | Product List | Glossary On
Versions: 1 2 3 4 5 6 7 8 9 10 11 12 13 14 15 16 17 18 19 20 21
000
FTUS43 KUNR 191600 AAA
TAFRAP
TAF AMD
KRAP 191608Z 1916/2012 35015KT P6SM BKN035
     FM191900 35009KT P6SM BKN030
     FM200200 VRB05KT P6SM OVC012
     FM200600 10005KT 3SM BR OVC003=

USA.gov is the U.S. government's official web portal to all federal, state and local government web resources and services.